createdAt,value
2017-04-15T00:00:56.931Z,66.12
2017-04-15T00:01:55.563Z,66.07
2017-04-15T00:02:54.170Z,66.15
2017-04-15T00:03:52.671Z,66.12
2017-04-15T00:04:51.168Z,66.21
2017-04-15T00:05:49.771Z,66.20
2017-04-15T00:06:48.432Z,66.02
2017-04-15T00:07:47.028Z,66.12
2017-04-15T00:08:45.672Z,66.64
2017-04-15T00:09:44.307Z,66.86
2017-04-15T00:10:42.967Z,67.21
2017-04-15T00:11:41.650Z,67.49
2017-04-15T00:12:40.194Z,67.98
2017-04-15T00:13:38.810Z,67.94
2017-04-15T00:14:37.322Z,68.27
2017-04-15T00:15:35.825Z,67.83
2017-04-15T00:16:34.320Z,67.25
2017-04-15T00:17:33.589Z,67.35
2017-04-15T00:18:32.103Z,67.54
2017-04-15T00:19:30.767Z,67.72
2017-04-15T00:20:29.292Z,67.99
2017-04-15T00:21:27.842Z,67.80
2017-04-15T00:22:26.774Z,67.25
2017-04-15T00:23:25.382Z,67.22
2017-04-15T00:24:23.923Z,67.13
2017-04-15T00:25:22.443Z,66.87
2017-04-15T00:26:20.971Z,67.08
2017-04-15T00:27:19.519Z,66.80
2017-04-15T00:28:18.091Z,67.26
2017-04-15T00:29:16.634Z,67.07
2017-04-15T00:30:15.137Z,66.92
2017-04-15T00:31:13.707Z,66.87
2017-04-15T00:32:12.228Z,66.82
2017-04-15T00:33:11.171Z,66.95
2017-04-15T00:34:09.711Z,66.78
2017-04-15T00:35:08.244Z,67.12
2017-04-15T00:36:06.796Z,67.63
2017-04-15T00:37:05.444Z,68.39
2017-04-15T00:38:03.955Z,68.24
2017-04-15T00:39:02.516Z,68.48
2017-04-15T00:40:01.169Z,68.55
2017-04-15T00:40:59.759Z,68.87
2017-04-15T00:41:58.336Z,68.67
2017-04-15T00:42:56.868Z,69.39
2017-04-15T00:43:55.680Z,69.59
2017-04-15T00:44:54.313Z,69.46
2017-04-15T00:45:52.831Z,69.38
2017-04-15T00:46:51.347Z,69.87
2017-04-15T00:47:49.860Z,69.62
2017-04-15T00:48:48.399Z,69.55
2017-04-15T00:49:46.946Z,70.16
2017-04-15T00:50:45.531Z,69.93
2017-04-15T00:51:44.119Z,70.22
2017-04-15T00:52:42.750Z,69.87
2017-04-15T00:53:41.356Z,70.39
2017-04-15T00:54:40.190Z,69.87
2017-04-15T00:55:38.706Z,69.90
2017-04-15T00:56:37.219Z,70.07
2017-04-15T00:57:35.731Z,69.78
2017-04-15T00:58:34.326Z,70.45
2017-04-15T00:59:32.887Z,70.71
2017-04-15T01:00:31.474Z,70.98
2017-04-15T01:01:30.015Z,70.82
2017-04-15T01:02:28.530Z,71.20
2017-04-15T01:03:27.072Z,71.08
2017-04-15T01:04:25.591Z,70.96
2017-04-15T01:05:24.504Z,71.09
2017-04-15T01:06:23.032Z,71.05
2017-04-15T01:07:21.558Z,70.73
2017-04-15T01:08:20.161Z,70.03
2017-04-15T01:09:18.759Z,69.46
2017-04-15T01:10:17.298Z,69.49
2017-04-15T01:11:15.914Z,69.80
2017-04-15T01:12:14.427Z,69.73
2017-04-15T01:13:12.968Z,69.96
2017-04-15T01:14:11.451Z,69.82
2017-04-15T01:15:09.939Z,69.55
2017-04-15T01:16:08.899Z,69.67
2017-04-15T01:17:07.429Z,68.97
2017-04-15T01:18:05.928Z,68.46
2017-04-15T01:19:04.442Z,68.15
2017-04-15T01:20:02.982Z,67.44
2017-04-15T01:21:01.511Z,67.65
2017-04-15T01:22:00.252Z,67.82
2017-04-15T01:22:58.896Z,67.84
2017-04-15T01:23:57.478Z,68.75
2017-04-15T01:24:56.004Z,68.22
2017-04-15T01:25:54.655Z,68.00
2017-04-15T01:26:53.282Z,68.02
2017-04-15T01:27:52.027Z,67.69
2017-04-15T01:28:50.521Z,67.49
2017-04-15T01:29:49.075Z,67.15
2017-04-15T01:30:47.768Z,67.22
2017-04-15T01:31:46.386Z,67.37
2017-04-15T01:32:44.960Z,66.91
2017-04-15T01:33:43.927Z,66.95
2017-04-15T01:34:42.547Z,67.40
2017-04-15T01:35:41.063Z,67.72
2017-04-15T01:36:39.586Z,68.12
2017-04-15T01:37:38.185Z,67.65
2017-04-15T01:38:36.676Z,67.82
2017-04-15T01:39:35.459Z,68.14
2017-04-15T01:40:33.959Z,68.12
2017-04-15T01:41:32.471Z,67.90
2017-04-15T01:42:31.021Z,67.62
2017-04-15T01:43:29.547Z,67.71
2017-04-15T01:44:28.083Z,67.90
2017-04-15T01:45:27.008Z,67.87
2017-04-15T01:46:25.579Z,67.82
2017-04-15T01:47:24.102Z,67.81
2017-04-15T01:48:22.628Z,67.73
2017-04-15T01:49:21.170Z,67.52
2017-04-15T01:50:19.724Z,67.23
2017-04-15T01:51:18.343Z,66.99
2017-04-15T01:52:16.850Z,67.07
2017-04-15T01:53:15.463Z,67.02
2017-04-15T01:54:13.980Z,67.24
2017-04-15T01:55:12.527Z,67.17
2017-04-15T01:56:11.307Z,67.14
2017-04-15T01:57:09.824Z,67.14
2017-04-15T01:58:08.359Z,67.43
2017-04-15T01:59:06.853Z,67.29
2017-04-15T02:00:05.389Z,66.71
2017-04-15T02:01:03.950Z,66.68
2017-04-15T02:02:02.597Z,66.64
2017-04-15T02:03:01.162Z,66.94
2017-04-15T02:03:59.869Z,67.43
2017-04-15T02:04:58.388Z,67.78
2017-04-15T02:05:56.939Z,67.96
2017-04-15T02:06:55.919Z,67.53
2017-04-15T02:07:54.467Z,67.66
2017-04-15T02:08:53.063Z,67.56
2017-04-15T02:09:51.642Z,67.69
2017-04-15T02:10:50.222Z,67.17
2017-04-15T02:11:48.730Z,67.36
2017-04-15T02:12:47.270Z,67.52
2017-04-15T02:13:45.868Z,67.47
2017-04-15T02:14:44.459Z,67.49
2017-04-15T02:15:43.138Z,67.26
2017-04-15T02:16:41.654Z,67.26
2017-04-15T02:17:40.515Z,67.36
2017-04-15T02:18:39.035Z,67.47
2017-04-15T02:19:37.619Z,67.12
2017-04-15T02:20:36.327Z,67.14
2017-04-15T02:21:34.883Z,67.13
2017-04-15T02:22:33.417Z,67.09
2017-04-15T02:23:32.035Z,66.86
2017-04-15T02:24:30.535Z,66.72
2017-04-15T02:25:29.064Z,66.73
2017-04-15T02:26:27.620Z,66.79
2017-04-15T02:27:26.163Z,66.82
2017-04-15T02:28:24.943Z,66.97
2017-04-15T02:29:23.478Z,67.25
2017-04-15T02:30:22.032Z,67.43
2017-04-15T02:31:20.516Z,67.07
2017-04-15T02:32:19.032Z,67.03
2017-04-15T02:33:17.590Z,67.19
2017-04-15T02:34:16.139Z,66.99
2017-04-15T02:35:14.683Z,66.81
2017-04-15T02:36:13.219Z,66.83
2017-04-15T02:37:11.748Z,67.08
2017-04-15T02:38:10.259Z,67.19
2017-04-15T02:39:09.128Z,67.25
2017-04-15T02:40:07.706Z,66.85
2017-04-15T02:41:06.263Z,66.90
2017-04-15T02:42:04.853Z,66.72
2017-04-15T02:43:03.399Z,66.69
2017-04-15T02:44:01.894Z,66.65
2017-04-15T02:45:00.482Z,66.85
2017-04-15T02:45:59.030Z,67.10
2017-04-15T02:46:57.554Z,66.87
2017-04-15T02:47:56.072Z,66.55
2017-04-15T02:48:54.632Z,66.65
2017-04-15T02:49:53.435Z,66.59
2017-04-15T02:50:51.922Z,66.80
2017-04-15T02:51:50.503Z,66.72
2017-04-15T02:52:49.114Z,66.86
2017-04-15T02:53:47.790Z,66.54
2017-04-15T02:54:46.387Z,66.74
2017-04-15T02:55:45.027Z,66.58
2017-04-15T02:56:43.599Z,66.62
2017-04-15T02:57:42.130Z,66.86
2017-04-15T02:58:40.654Z,67.03
2017-04-15T02:59:39.203Z,66.93
2017-04-15T03:00:37.741Z,66.91
2017-04-15T03:01:36.296Z,66.82
2017-04-15T03:02:34.984Z,66.58
2017-04-15T03:03:33.483Z,66.49
2017-04-15T03:04:32.370Z,66.50
2017-04-15T03:05:30.939Z,66.48
2017-04-15T03:06:29.455Z,66.31
2017-04-15T03:07:28.021Z,66.60
2017-04-15T03:08:26.535Z,66.65
2017-04-15T03:09:25.095Z,66.55
2017-04-15T03:10:23.731Z,66.19
2017-04-15T03:11:22.335Z,66.58
2017-04-15T03:12:20.858Z,66.70
2017-04-15T03:13:19.712Z,66.97
2017-04-15T03:14:18.251Z,67.14
2017-04-15T03:15:16.782Z,67.30
2017-04-15T03:16:15.295Z,66.46
2017-04-15T03:17:13.822Z,66.44
2017-04-15T03:18:12.355Z,66.62
2017-04-15T03:19:11.239Z,66.69
2017-04-15T03:20:09.799Z,66.81
2017-04-15T03:21:08.587Z,66.38
2017-04-15T03:22:07.168Z,66.66
2017-04-15T03:23:05.659Z,66.76
2017-04-15T03:24:04.170Z,66.67
2017-04-15T03:25:02.699Z,66.80
2017-04-15T03:26:01.188Z,66.16
2017-04-15T03:26:59.724Z,65.47
2017-04-15T03:27:58.295Z,65.52
2017-04-15T03:28:56.791Z,65.88
2017-04-15T03:29:55.657Z,66.46
2017-04-15T03:30:54.187Z,66.63
2017-04-15T03:31:52.703Z,66.88
2017-04-15T03:32:51.209Z,66.62
2017-04-15T03:33:49.767Z,66.77
2017-04-15T03:34:48.322Z,66.87
2017-04-15T03:35:46.903Z,66.81
2017-04-15T03:36:45.446Z,66.93
2017-04-15T03:37:43.959Z,66.71
2017-04-15T03:38:42.519Z,66.68
2017-04-15T03:39:41.038Z,66.81
2017-04-15T03:40:39.907Z,66.77
2017-04-15T03:41:38.407Z,66.58
2017-04-15T03:42:36.915Z,66.20
2017-04-15T03:43:35.387Z,66.33
2017-04-15T03:44:34.028Z,66.58
2017-04-15T03:45:32.539Z,66.80
2017-04-15T03:46:31.218Z,66.67
2017-04-15T03:47:29.791Z,66.67
2017-04-15T03:48:28.324Z,66.95
2017-04-15T03:49:26.925Z,67.27
2017-04-15T03:50:25.479Z,67.24
2017-04-15T03:51:24.130Z,66.65
2017-04-15T03:52:22.686Z,66.71
2017-04-15T03:53:21.219Z,66.76
2017-04-15T03:54:19.744Z,66.84
2017-04-15T03:55:18.259Z,66.86
2017-04-15T03:56:16.763Z,66.71
2017-04-15T03:57:15.323Z,67.26
2017-04-15T03:58:13.850Z,66.89
2017-04-15T03:59:12.490Z,66.51
2017-04-15T04:00:11.112Z,66.42
2017-04-15T04:01:09.649Z,66.53
2017-04-15T04:02:08.547Z,66.65
2017-04-15T04:03:07.125Z,66.88
2017-04-15T04:04:05.691Z,66.98
2017-04-15T04:05:04.214Z,67.02
2017-04-15T04:06:02.725Z,66.79
2017-04-15T04:07:01.265Z,66.88
2017-04-15T04:07:59.935Z,67.22
2017-04-15T04:08:58.546Z,67.38
2017-04-15T04:09:57.072Z,67.60
2017-04-15T04:10:55.587Z,67.86
2017-04-15T04:11:54.111Z,68.18
2017-04-15T04:12:52.951Z,67.84
2017-04-15T04:13:51.488Z,67.64
2017-04-15T04:14:50.082Z,67.52
2017-04-15T04:15:48.604Z,67.29
2017-04-15T04:16:49.481Z,67.73
2017-04-15T04:17:48.571Z,67.73
2017-04-15T04:18:47.666Z,67.73
2017-04-15T04:19:46.214Z,68.06
2017-04-15T04:20:44.746Z,68.02
2017-04-15T04:21:43.247Z,67.55
2017-04-15T04:22:41.762Z,67.83
2017-04-15T04:23:40.736Z,67.73
2017-04-15T04:24:39.244Z,67.92
2017-04-15T04:25:37.775Z,68.15
2017-04-15T04:26:36.259Z,68.00
2017-04-15T04:27:34.763Z,67.84
2017-04-15T04:28:33.333Z,67.80
2017-04-15T04:29:31.879Z,67.76
2017-04-15T04:30:30.495Z,67.22
2017-04-15T04:31:29.007Z,67.12
2017-04-15T04:32:27.511Z,66.20
2017-04-15T04:33:26.030Z,66.56
2017-04-15T04:34:24.735Z,66.58
2017-04-15T04:35:23.329Z,65.48
2017-04-15T04:36:21.852Z,65.62
2017-04-15T04:37:20.353Z,65.20
2017-04-15T04:38:18.935Z,65.18
2017-04-15T04:39:17.492Z,64.95
2017-04-15T04:40:16.063Z,65.41
2017-04-15T04:41:14.571Z,65.34
2017-04-15T04:42:13.322Z,64.60
2017-04-15T04:43:11.874Z,64.69
2017-04-15T04:44:10.514Z,65.02
2017-04-15T04:45:09.330Z,65.52
2017-04-15T04:46:07.855Z,64.89
2017-04-15T04:47:06.387Z,64.88
2017-04-15T04:48:04.979Z,64.72
2017-04-15T04:49:03.482Z,65.07
2017-04-15T04:50:02.011Z,65.56
2017-04-15T04:51:00.596Z,65.55
2017-04-15T04:51:59.155Z,64.96
2017-04-15T04:52:57.676Z,64.93
2017-04-15T04:53:56.184Z,65.25
2017-04-15T04:54:54.727Z,64.75
2017-04-15T04:55:53.284Z,64.52
2017-04-15T04:56:52.215Z,64.48
2017-04-15T04:57:50.751Z,64.62
2017-04-15T04:58:49.375Z,64.71
2017-04-15T04:59:47.902Z,65.31
2017-04-15T05:00:46.626Z,64.95
2017-04-15T05:01:45.191Z,64.77
2017-04-15T05:02:44.102Z,65.14
2017-04-15T05:03:42.679Z,65.42
2017-04-15T05:04:41.204Z,65.56
2017-04-15T05:05:39.773Z,65.25
2017-04-15T05:06:38.356Z,65.13
2017-04-15T05:07:36.912Z,64.88
2017-04-15T05:08:35.451Z,64.58
2017-04-15T05:09:34.022Z,65.31
2017-04-15T05:10:32.666Z,64.99
2017-04-15T05:11:31.383Z,65.11
2017-04-15T05:12:29.923Z,65.12
2017-04-15T05:13:28.682Z,65.49
2017-04-15T05:14:27.240Z,65.35
2017-04-15T05:15:26.028Z,65.03
2017-04-15T05:16:24.523Z,64.94
2017-04-15T05:17:23.043Z,65.67
2017-04-15T05:18:21.561Z,65.93
2017-04-15T05:19:20.124Z,65.34
2017-04-15T05:20:18.647Z,65.11
2017-04-15T05:21:17.147Z,65.15
2017-04-15T05:22:15.687Z,65.61
2017-04-15T05:23:14.207Z,65.86
2017-04-15T05:24:13.048Z,65.68
2017-04-15T05:25:11.582Z,65.68
2017-04-15T05:26:10.599Z,65.74
2017-04-15T05:27:09.180Z,66.30
2017-04-15T05:28:07.674Z,66.67
2017-04-15T05:29:06.190Z,66.02
2017-04-15T05:30:04.783Z,66.22
2017-04-15T05:31:03.330Z,66.25
2017-04-15T05:32:01.902Z,66.80
2017-04-15T05:33:00.446Z,66.60
2017-04-15T05:33:58.959Z,66.72
2017-04-15T05:34:57.689Z,67.29
2017-04-15T05:35:56.206Z,66.94
2017-04-15T05:36:54.690Z,67.01
2017-04-15T05:37:53.296Z,67.90
2017-04-15T05:38:51.786Z,67.91
2017-04-15T05:39:50.294Z,68.05
2017-04-15T05:40:48.840Z,67.93
2017-04-15T05:41:47.432Z,68.01
2017-04-15T05:42:45.997Z,67.74
2017-04-15T05:43:44.514Z,67.62
2017-04-15T05:44:43.045Z,67.64
2017-04-15T05:45:41.778Z,66.89
2017-04-15T05:46:40.307Z,67.39
2017-04-15T05:47:38.807Z,67.50
2017-04-15T05:48:37.346Z,67.82
2017-04-15T05:49:35.868Z,67.70
2017-04-15T05:50:34.371Z,67.87
2017-04-15T05:51:32.910Z,67.70
2017-04-15T05:52:31.492Z,67.57
2017-04-15T05:53:30.051Z,68.27
2017-04-15T05:54:28.638Z,68.33
2017-04-15T05:55:27.140Z,68.27
2017-04-15T05:56:25.874Z,68.07
2017-04-15T05:57:24.387Z,68.37
2017-04-15T05:58:22.898Z,68.26
2017-04-15T05:59:21.396Z,68.45
2017-04-15T06:00:20.021Z,68.56
2017-04-15T06:01:18.680Z,69.11
2017-04-15T06:02:17.259Z,68.39
2017-04-15T06:03:15.860Z,68.57
2017-04-15T06:04:14.352Z,68.15
2017-04-15T06:05:12.887Z,68.02
2017-04-15T06:06:11.419Z,68.29
2017-04-15T06:07:10.398Z,68.51
2017-04-15T06:08:08.962Z,68.73
2017-04-15T06:09:07.530Z,68.44
2017-04-15T06:10:06.050Z,68.71
2017-04-15T06:11:04.566Z,68.07
2017-04-15T06:12:03.115Z,68.51
2017-04-15T06:13:01.704Z,68.36
2017-04-15T06:14:00.221Z,68.93
2017-04-15T06:14:58.711Z,69.42
2017-04-15T06:15:57.334Z,68.69
2017-04-15T06:16:55.963Z,68.55
2017-04-15T06:17:54.587Z,68.95
2017-04-15T06:18:53.375Z,68.63
2017-04-15T06:19:51.863Z,68.80
2017-04-15T06:20:50.447Z,69.14
2017-04-15T06:21:49.052Z,69.11
2017-04-15T06:22:47.599Z,69.61
2017-04-15T06:23:46.133Z,69.48
2017-04-15T06:24:44.899Z,69.81
2017-04-15T06:25:43.459Z,70.34
2017-04-15T06:26:42.103Z,70.91
2017-04-15T06:27:40.815Z,71.62
2017-04-15T06:28:39.497Z,72.00
2017-04-15T06:29:38.019Z,72.18
2017-04-15T06:30:36.814Z,72.50
2017-04-15T06:31:35.338Z,73.70
2017-04-15T06:32:34.064Z,73.55
2017-04-15T06:33:32.626Z,74.12
2017-04-15T06:34:31.777Z,74.18
2017-04-15T06:35:30.457Z,74.37
2017-04-15T06:36:29.099Z,74.09
2017-04-15T06:37:27.791Z,74.54
2017-04-15T06:38:26.354Z,74.97
2017-04-15T06:39:24.946Z,75.33
2017-04-15T06:40:23.479Z,74.70
2017-04-15T06:41:22.211Z,74.81
2017-04-15T06:42:20.866Z,74.94
2017-04-15T06:43:19.397Z,75.43
2017-04-15T06:44:18.008Z,75.34
2017-04-15T06:45:16.615Z,75.71
2017-04-15T06:46:15.554Z,76.45
2017-04-15T06:47:14.201Z,76.40
2017-04-15T06:48:12.801Z,76.51
2017-04-15T06:49:11.378Z,76.87
2017-04-15T06:50:09.924Z,76.94
2017-04-15T06:51:08.503Z,77.39
2017-04-15T06:52:07.138Z,77.86
2017-04-15T06:53:05.678Z,77.85
2017-04-15T06:54:04.178Z,77.47
2017-04-15T06:55:02.800Z,77.91
2017-04-15T06:56:01.316Z,78.25
2017-04-15T06:57:00.276Z,78.95
2017-04-15T06:57:58.956Z,78.28
2017-04-15T06:58:57.472Z,78.63
2017-04-15T06:59:56.000Z,78.79
2017-04-15T07:00:54.543Z,78.51
2017-04-15T07:01:53.066Z,78.98
2017-04-15T07:02:51.687Z,79.10
2017-04-15T07:03:50.299Z,79.54
2017-04-15T07:04:48.874Z,79.29
2017-04-15T07:05:47.480Z,79.77
2017-04-15T07:06:46.026Z,80.00
2017-04-15T07:07:44.986Z,80.61
2017-04-15T07:08:43.518Z,81.33
2017-04-15T07:09:42.051Z,81.40
2017-04-15T07:10:40.695Z,81.63
2017-04-15T07:11:39.232Z,81.70
2017-04-15T07:12:37.743Z,81.59
2017-04-15T07:13:36.544Z,81.59
2017-04-15T07:14:35.075Z,81.76
2017-04-15T07:15:33.628Z,82.37
2017-04-15T07:16:32.143Z,82.74
2017-04-15T07:17:30.695Z,82.90
2017-04-15T07:18:29.723Z,82.95
2017-04-15T07:19:28.259Z,82.72
2017-04-15T07:20:26.788Z,82.99
2017-04-15T07:21:25.419Z,82.83
2017-04-15T07:22:23.945Z,82.97
2017-04-15T07:23:22.460Z,83.29
2017-04-15T07:24:21.067Z,83.36
2017-04-15T07:25:19.588Z,83.10
2017-04-15T07:26:18.127Z,83.11
2017-04-15T07:27:16.684Z,83.32
2017-04-15T07:28:15.341Z,83.41
2017-04-15T07:29:14.247Z,83.97
2017-04-15T07:30:12.770Z,83.39
2017-04-15T07:31:11.320Z,83.63
2017-04-15T07:32:09.921Z,83.81
2017-04-15T07:33:08.499Z,83.88
2017-04-15T07:34:07.107Z,84.21
2017-04-15T07:35:05.719Z,84.48
2017-04-15T07:36:04.229Z,84.52
2017-04-15T07:37:02.861Z,85.13
2017-04-15T07:38:01.491Z,84.75
2017-04-15T07:39:00.048Z,84.97
2017-04-15T07:39:58.579Z,85.41
2017-04-15T07:40:57.318Z,85.62
2017-04-15T07:41:55.828Z,85.33
2017-04-15T07:42:54.386Z,85.35
2017-04-15T07:43:52.871Z,85.64
2017-04-15T07:44:51.386Z,85.57
2017-04-15T07:45:49.909Z,85.14
2017-04-15T07:46:48.634Z,85.75
2017-04-15T07:47:47.234Z,85.68
2017-04-15T07:48:45.775Z,85.80
2017-04-15T07:49:44.298Z,84.98
2017-04-15T07:50:42.839Z,85.62
2017-04-15T07:51:41.342Z,85.54
2017-04-15T07:52:40.140Z,85.86
2017-04-15T07:53:38.745Z,86.18
2017-04-15T07:54:37.299Z,86.17
2017-04-15T07:55:35.815Z,86.01
2017-04-15T07:56:34.324Z,85.91
2017-04-15T07:57:32.849Z,85.48
2017-04-15T07:58:32.390Z,85.97
2017-04-15T07:59:30.974Z,86.31
2017-04-15T08:00:29.649Z,86.18
2017-04-15T08:01:28.235Z,85.81
2017-04-15T08:02:26.794Z,86.36
2017-04-15T08:03:25.616Z,86.27
2017-04-15T08:04:24.250Z,86.38
2017-04-15T08:05:22.830Z,86.30
2017-04-15T08:06:21.422Z,85.94
2017-04-15T08:07:19.962Z,86.26
2017-04-15T08:08:18.678Z,86.18
2017-04-15T08:09:17.553Z,85.92
2017-04-15T08:10:16.101Z,86.16
2017-04-15T08:11:14.731Z,85.96
2017-04-15T08:12:13.304Z,86.27
2017-04-15T08:13:11.814Z,86.27
2017-04-15T08:14:10.499Z,85.90
2017-04-15T08:15:08.992Z,86.23
2017-04-15T08:16:07.547Z,86.31
2017-04-15T08:17:06.085Z,86.24
2017-04-15T08:18:04.595Z,86.39
2017-04-15T08:19:03.139Z,86.45
2017-04-15T08:20:01.730Z,86.26
2017-04-15T08:21:00.248Z,85.92
2017-04-15T08:21:59.078Z,85.99
2017-04-15T08:22:57.589Z,85.96
2017-04-15T08:23:56.195Z,86.41
2017-04-15T08:24:55.017Z,86.29
2017-04-15T08:25:53.598Z,86.25
2017-04-15T08:26:52.117Z,86.15
2017-04-15T08:27:50.667Z,86.34
2017-04-15T08:28:52.667Z,86.02
2017-04-15T08:29:51.201Z,85.64
2017-04-15T08:30:49.784Z,85.73
2017-04-15T08:31:48.352Z,85.71
2017-04-15T08:32:46.870Z,85.96
2017-04-15T08:33:45.559Z,85.81
2017-04-15T08:34:44.156Z,85.68
2017-04-15T08:35:43.000Z,85.84
2017-04-15T08:36:41.520Z,85.86
2017-04-15T08:37:40.060Z,85.78
2017-04-15T08:38:38.787Z,85.77
2017-04-15T08:39:37.355Z,85.69
2017-04-15T08:40:35.953Z,85.67
2017-04-15T08:41:34.789Z,85.78
2017-04-15T08:42:33.342Z,85.52
2017-04-15T08:43:31.985Z,85.54
2017-04-15T08:44:30.647Z,85.46
2017-04-15T08:45:29.203Z,85.62
2017-04-15T08:46:28.031Z,85.19
2017-04-15T08:47:26.579Z,85.12
2017-04-15T08:48:25.232Z,84.84
2017-04-15T08:49:23.863Z,84.81
2017-04-15T08:50:30.171Z,84.86
2017-04-15T08:51:28.881Z,84.68
2017-04-15T08:52:32.656Z,84.76
2017-04-15T08:53:31.666Z,85.06
2017-04-15T08:54:30.223Z,85.06
2017-04-15T08:55:28.804Z,85.19
2017-04-15T08:56:27.503Z,84.94
2017-04-15T08:57:26.242Z,85.03
2017-04-15T08:58:24.875Z,84.71
2017-04-15T08:59:23.432Z,84.96
2017-04-15T09:00:21.967Z,85.43
2017-04-15T09:01:20.495Z,85.23
2017-04-15T09:02:19.043Z,85.15
2017-04-15T09:03:17.630Z,85.37
2017-04-15T09:04:16.185Z,85.71
2017-04-15T09:05:14.762Z,85.30
2017-04-15T09:06:13.334Z,85.48
2017-04-15T09:07:11.923Z,85.71
2017-04-15T09:08:11.363Z,85.96
2017-04-15T09:09:09.926Z,85.83
2017-04-15T09:10:08.470Z,85.93
2017-04-15T09:11:07.074Z,86.02
2017-04-15T09:12:05.594Z,85.70
2017-04-15T09:13:04.101Z,85.79
2017-04-15T09:14:02.715Z,86.06
2017-04-15T09:15:01.288Z,85.81
2017-04-15T09:15:59.958Z,85.75
2017-04-15T09:16:58.495Z,85.78
2017-04-15T09:17:57.083Z,85.66
2017-04-15T09:18:55.872Z,85.45
2017-04-15T09:19:54.443Z,85.51
2017-04-15T09:20:52.959Z,85.18
2017-04-15T09:21:51.526Z,84.86
2017-04-15T09:22:50.079Z,84.80
2017-04-15T09:23:48.591Z,84.81
2017-04-15T09:24:47.190Z,84.48
2017-04-15T09:25:45.947Z,84.58
2017-04-15T09:26:44.456Z,84.25
2017-04-15T09:27:42.962Z,84.69
2017-04-15T09:28:41.495Z,84.14
2017-04-15T09:29:40.275Z,84.43
2017-04-15T09:30:38.848Z,84.57
2017-04-15T09:31:37.396Z,83.87
2017-04-15T09:32:35.932Z,84.11
2017-04-15T09:33:34.476Z,83.99
2017-04-15T09:34:33.202Z,83.78
2017-04-15T09:35:31.861Z,83.79
2017-04-15T09:36:30.479Z,83.40
2017-04-15T09:37:29.083Z,83.47
2017-04-15T09:38:27.671Z,83.89
2017-04-15T09:39:28.859Z,83.37
2017-04-15T09:40:27.576Z,83.69
2017-04-15T09:41:26.263Z,83.57
2017-04-15T09:42:25.041Z,84.05
2017-04-15T09:43:23.564Z,84.23
2017-04-15T09:44:22.126Z,84.47
2017-04-15T09:45:20.680Z,84.30
2017-04-15T09:46:19.269Z,84.35
2017-04-15T09:47:17.836Z,84.51
2017-04-15T09:48:16.446Z,84.86
2017-04-15T09:49:14.974Z,84.26
2017-04-15T09:50:13.571Z,84.75
2017-04-15T09:51:12.174Z,84.77
2017-04-15T09:52:10.704Z,84.75
2017-04-15T09:53:09.716Z,84.68
2017-04-15T09:54:08.226Z,84.32
2017-04-15T09:55:06.774Z,84.39
2017-04-15T09:56:05.384Z,84.14
2017-04-15T09:57:04.033Z,84.19
2017-04-15T09:58:02.701Z,84.29
2017-04-15T09:59:01.659Z,83.98
2017-04-15T10:00:00.254Z,84.46
2017-04-15T10:00:59.122Z,84.28
2017-04-15T10:01:58.014Z,84.59
2017-04-15T10:02:56.540Z,84.43
2017-04-15T10:03:55.107Z,84.93
2017-04-15T10:04:53.743Z,84.62
2017-04-15T10:05:52.293Z,85.07
2017-04-15T10:06:50.847Z,85.02
2017-04-15T10:07:49.394Z,84.86
2017-04-15T10:08:47.934Z,85.42
2017-04-15T10:09:46.675Z,86.00
2017-04-15T10:10:45.225Z,85.82
2017-04-15T10:11:43.779Z,85.75
2017-04-15T10:12:42.411Z,85.52
2017-04-15T10:13:41.037Z,86.10
2017-04-15T10:14:39.662Z,87.06
2017-04-15T10:15:38.215Z,87.03
2017-04-15T10:16:36.803Z,86.91
2017-04-15T10:17:35.616Z,86.46
2017-04-15T10:18:34.203Z,86.58
2017-04-15T10:19:32.809Z,86.71
2017-04-15T10:20:31.912Z,87.33
2017-04-15T10:21:30.411Z,87.97
2017-04-15T10:22:28.987Z,87.27
2017-04-15T10:23:27.614Z,87.44
2017-04-15T10:24:26.103Z,88.21
2017-04-15T10:25:24.761Z,86.37
2017-04-15T10:26:23.359Z,86.43
2017-04-15T10:27:21.896Z,87.52
2017-04-15T10:28:20.431Z,87.74
2017-04-15T10:29:18.996Z,87.73
2017-04-15T10:30:17.571Z,87.49
2017-04-15T10:31:16.407Z,87.22
2017-04-15T10:32:15.172Z,87.57
2017-04-15T10:33:13.765Z,88.13
2017-04-15T10:34:12.291Z,87.26
2017-04-15T10:35:11.042Z,87.14
2017-04-15T10:36:09.563Z,86.72
2017-04-15T10:37:08.156Z,87.19
2017-04-15T10:38:06.691Z,87.17
2017-04-15T10:39:06.062Z,87.46
2017-04-15T10:40:04.635Z,86.88
2017-04-15T10:41:03.203Z,86.60
2017-04-15T10:42:02.158Z,86.79
2017-04-15T10:43:00.659Z,87.08
2017-04-15T10:43:59.157Z,87.16
2017-04-15T10:44:57.710Z,86.22
2017-04-15T10:45:56.258Z,85.75
2017-04-15T10:46:54.763Z,86.78
2017-04-15T10:47:53.331Z,86.37
2017-04-15T10:48:51.903Z,87.37
2017-04-15T10:49:50.433Z,87.12
2017-04-15T10:50:48.990Z,87.19
2017-04-15T10:51:47.532Z,87.17
2017-04-15T10:52:46.439Z,86.78
2017-04-15T10:53:44.962Z,86.86
2017-04-15T10:54:43.604Z,86.93
2017-04-15T10:55:42.192Z,86.92
2017-04-15T10:56:40.750Z,86.01
2017-04-15T10:57:39.268Z,86.01
2017-04-15T10:58:37.880Z,86.12
2017-04-15T10:59:36.414Z,85.92
2017-04-15T11:00:34.969Z,85.81
2017-04-15T11:01:33.487Z,85.72
2017-04-15T11:02:32.069Z,86.46
2017-04-15T11:03:31.060Z,86.56
2017-04-15T11:04:29.592Z,86.56
2017-04-15T11:05:28.198Z,86.18
2017-04-15T11:06:26.817Z,86.17
2017-04-15T11:07:25.343Z,86.86
2017-04-15T11:08:23.881Z,87.20
2017-04-15T11:09:22.431Z,86.51
2017-04-15T11:10:20.956Z,86.28
2017-04-15T11:11:19.586Z,87.77
2017-04-15T11:12:18.166Z,86.77
2017-04-15T11:13:16.726Z,84.92
2017-04-15T11:14:15.258Z,84.68
2017-04-15T11:15:13.817Z,84.38
2017-04-15T11:16:12.338Z,84.47
2017-04-15T11:17:10.962Z,84.78
2017-04-15T11:18:09.548Z,85.99
2017-04-15T11:19:08.071Z,83.88
2017-04-15T11:20:06.584Z,83.91
2017-04-15T11:21:05.584Z,82.44
2017-04-15T11:22:04.147Z,84.51
2017-04-15T11:23:02.659Z,83.83
2017-04-15T11:24:01.179Z,83.58
2017-04-15T11:24:59.738Z,82.76
2017-04-15T11:25:58.296Z,83.24
2017-04-15T11:26:57.070Z,81.95
2017-04-15T11:27:55.593Z,82.96
2017-04-15T11:28:54.190Z,84.44
2017-04-15T11:29:52.691Z,83.02
2017-04-15T11:30:51.260Z,82.25
2017-04-15T11:31:49.874Z,83.01
2017-04-15T11:32:48.867Z,82.04
2017-04-15T11:33:47.400Z,81.44
2017-04-15T11:34:45.888Z,83.48
2017-04-15T11:35:44.412Z,82.78
2017-04-15T11:36:42.974Z,82.07
2017-04-15T11:37:41.563Z,82.39
2017-04-15T11:38:40.236Z,81.81
2017-04-15T11:39:38.814Z,82.55
2017-04-15T11:40:37.442Z,83.57
2017-04-15T11:41:35.999Z,83.33
2017-04-15T11:42:34.510Z,83.37
2017-04-15T11:43:33.363Z,83.24
2017-04-15T11:44:31.897Z,83.33
2017-04-15T11:45:30.447Z,82.62
2017-04-15T11:46:28.983Z,83.80
2017-04-15T11:47:27.492Z,82.87
2017-04-15T11:48:26.027Z,81.84
2017-04-15T11:49:25.576Z,81.92
2017-04-15T11:50:24.095Z,82.22
2017-04-15T11:51:22.618Z,79.89
2017-04-15T11:52:21.171Z,80.43
2017-04-15T11:53:19.671Z,79.60
2017-04-15T11:54:19.509Z,79.44
2017-04-15T11:55:18.139Z,79.43
2017-04-15T11:56:16.753Z,79.54
2017-04-15T11:57:15.341Z,80.67
2017-04-15T11:58:13.862Z,81.29
2017-04-15T11:59:12.412Z,79.24
2017-04-15T12:00:11.363Z,77.87
2017-04-15T12:01:09.867Z,76.71
2017-04-15T12:02:08.415Z,77.72
2017-04-15T12:03:07.247Z,75.55
2017-04-15T12:04:05.887Z,74.89
2017-04-15T12:05:04.482Z,74.78
2017-04-15T12:06:03.090Z,75.89
2017-04-15T12:07:01.682Z,75.94
2017-04-15T12:08:00.356Z,74.17
2017-04-15T12:08:58.979Z,75.50
2017-04-15T12:09:57.624Z,75.07
2017-04-15T12:10:56.163Z,74.69
2017-04-15T12:11:55.112Z,74.97
2017-04-15T12:12:53.675Z,74.33
2017-04-15T12:13:52.150Z,74.74
2017-04-15T12:14:50.719Z,73.26
2017-04-15T12:15:49.247Z,73.59
2017-04-15T12:16:47.782Z,73.67
2017-04-15T12:17:46.716Z,72.78
2017-04-15T12:18:45.224Z,73.39
2017-04-15T12:19:43.720Z,72.79
2017-04-15T12:20:42.236Z,73.02
2017-04-15T12:21:40.696Z,73.17
2017-04-15T12:22:39.198Z,73.95
2017-04-15T12:23:37.771Z,73.52
2017-04-15T12:24:36.291Z,73.58
2017-04-15T12:25:34.904Z,73.90
2017-04-15T12:26:33.454Z,74.54
2017-04-15T12:27:32.003Z,75.11
2017-04-15T12:28:30.524Z,75.60
2017-04-15T12:29:29.272Z,75.01
2017-04-15T12:30:27.785Z,74.84
2017-04-15T12:31:26.348Z,75.30
2017-04-15T12:32:25.096Z,75.36
2017-04-15T12:33:23.619Z,75.35
2017-04-15T12:34:22.208Z,75.88
2017-04-15T12:35:21.145Z,75.60